Time;durP1;ratioP1;P1;durP2;ratioP2;P2;SDS_P1;SDS_P2;PMS_P1;PMS_P2;Temp;Humidity;BMP_temperature;BMP_pressure;BME280_temperature;BME280_humidity;BME280_pressure;Samples;Min_cycle;Max_cycle;Signal;HPM_P1;HPM_P2
2023/10/04 00:00:23;;;;;;;7.87;3.10;;;18.80;95.00;;;;;;4961486;28;20465;-72
2023/10/04 00:02:52;;;;;;;4.33;2.57;;;18.90;95.10;;;;;;4962432;28;20437;-72
2023/10/04 00:05:21;;;;;;;5.00;3.17;;;18.90;95.20;;;;;;4945754;28;20450;-72
2023/10/04 00:07:51;;;;;;;3.97;2.73;;;18.80;95.10;;;;;;4945589;28;20474;-72
2023/10/04 00:10:21;;;;;;;4.70;3.20;;;18.80;95.20;;;;;;4929357;28;20874;-72
2023/10/04 00:12:48;;;;;;;4.77;2.93;;;18.80;95.20;;;;;;4963291;28;20443;-72
2023/10/04 00:15:13;;;;;;;3.80;3.00;;;18.80;95.20;;;;;;4962732;28;20463;-72
2023/10/04 00:17:43;;;;;;;3.77;2.97;;;18.80;95.30;;;;;;4945629;28;20887;-72
2023/10/04 00:20:14;;;;;;;2.70;2.50;;;18.80;95.30;;;;;;4953160;28;20469;-72
2023/10/04 00:22:40;;;;;;;3.20;2.90;;;18.80;95.20;;;;;;4953081;28;20517;-72
2023/10/04 00:25:21;;;;;;;4.93;2.60;;;18.80;95.20;;;;;;4953330;28;20446;-72
2023/10/04 00:27:59;;;;;;;2.70;2.30;;;18.80;95.30;;;;;;4945132;28;20429;-72
2023/10/04 00:30:29;;;;;;;2.90;2.37;;;18.80;95.30;;;;;;4929017;28;20440;-72
2023/10/04 00:33:02;;;;;;;3.10;2.57;;;18.80;95.30;;;;;;4945307;28;20990;-72
2023/10/04 00:35:28;;;;;;;3.00;2.67;;;18.70;95.20;;;;;;4944996;28;20850;-72
2023/10/04 00:38:00;;;;;;;3.67;2.77;;;18.70;95.20;;;;;;4929147;28;20452;-72
2023/10/04 00:40:28;;;;;;;4.77;3.00;;;18.70;95.20;;;;;;4952919;28;20603;-72
2023/10/04 00:42:59;;;;;;;3.20;2.70;;;18.70;95.30;;;;;;4913071;28;20557;-72
2023/10/04 00:45:34;;;;;;;4.83;3.50;;;18.70;95.30;;;;;;4929345;28;20477;-72
2023/10/04 00:48:11;;;;;;;4.40;3.37;;;18.70;95.30;;;;;;4928991;28;20749;-72
2023/10/04 00:50:40;;;;;;;7.23;3.60;;;18.70;95.30;;;;;;4929717;28;21569;-72
2023/10/04 00:53:14;;;;;;;3.67;3.00;;;18.70;95.30;;;;;;4937204;28;20553;-72
2023/10/04 00:55:43;;;;;;;8.90;2.83;;;18.60;95.30;;;;;;4929078;28;20671;-72
2023/10/04 00:58:14;;;;;;;5.40;3.80;;;18.60;95.20;;;;;;4913300;28;20458;-72
2023/10/04 01:00:43;;;;;;;4.20;3.37;;;18.60;95.30;;;;;;4944792;28;20424;-72
2023/10/04 01:03:15;;;;;;;3.87;3.47;;;18.70;95.30;;;;;;4936522;28;20454;-72
2023/10/04 01:05:51;;;;;;;4.83;3.67;;;18.70;95.40;;;;;;4928751;28;20884;-72
2023/10/04 01:08:23;;;;;;;4.87;2.80;;;18.70;95.30;;;;;;4936819;28;20432;-72
2023/10/04 01:10:51;;;;;;;4.47;2.80;;;18.60;95.30;;;;;;4936295;28;20460;-72
2023/10/04 01:13:27;;;;;;;5.57;3.53;;;18.60;95.30;;;;;;4944217;28;20417;-73
2023/10/04 01:15:57;;;;;;;4.33;2.90;;;18.60;95.20;;;;;;4959892;28;20462;-72
2023/10/04 01:18:28;;;;;;;3.10;2.80;;;18.60;95.40;;;;;;4928329;28;20504;-72
2023/10/04 01:20:55;;;;;;;5.00;3.17;;;18.60;95.30;;;;;;4925859;28;20431;-72
2023/10/04 01:23:21;;;;;;;4.17;3.00;;;18.60;95.30;;;;;;4959659;28;20421;-72
2023/10/04 01:25:47;;;;;;;3.43;3.00;;;18.60;95.30;;;;;;4943205;28;20445;-72
2023/10/04 01:28:26;;;;;;;3.33;3.00;;;18.50;95.40;;;;;;4961353;28;21031;-72
2023/10/04 01:30:59;;;;;;;5.97;3.27;;;18.50;95.30;;;;;;4928047;28;20465;-72
2023/10/04 01:33:28;;;;;;;6.87;3.90;;;18.60;95.40;;;;;;4927407;28;20519;-72
2023/10/04 01:35:57;;;;;;;4.17;2.90;;;18.60;95.40;;;;;;4943295;28;21019;-72
2023/10/04 01:38:25;;;;;;;3.20;2.83;;;18.50;95.30;;;;;;4927500;28;20476;-72
2023/10/04 01:40:52;;;;;;;3.50;3.20;;;18.50;95.40;;;;;;4927925;28;20437;-72
2023/10/04 01:43:24;;;;;;;2.87;2.50;;;18.50;95.40;;;;;;4927782;28;20472;-72
2023/10/04 01:45:58;;;;;;;4.73;3.60;;;18.40;95.30;;;;;;4943907;28;20705;-72
2023/10/04 01:48:26;;;;;;;3.77;2.70;;;18.50;95.30;;;;;;4928468;28;20442;-72
2023/10/04 01:50:53;;;;;;;7.00;3.63;;;18.50;95.40;;;;;;4928212;28;20867;-72
2023/10/04 01:53:24;;;;;;;3.30;3.00;;;18.50;95.40;;;;;;4944276;28;20421;-72
2023/10/04 01:55:51;;;;;;;3.03;2.73;;;18.40;95.30;;;;;;4960933;28;20839;-72
2023/10/04 01:58:24;;;;;;;4.10;2.90;;;18.50;95.40;;;;;;4928413;28;20475;-72
2023/10/04 02:00:53;;;;;;;3.70;3.00;;;18.40;95.30;;;;;;4965701;28;20871;-72
2023/10/04 02:03:20;;;;;;;4.93;4.07;;;18.40;95.40;;;;;;4947823;28;20929;-73
2023/10/04 02:05:58;;;;;;;3.23;2.93;;;18.40;95.50;;;;;;4948388;28;20467;-72
2023/10/04 02:08:25;;;;;;;4.20;2.97;;;18.40;95.40;;;;;;4941846;28;20961;-73
2023/10/04 02:10:54;;;;;;;4.40;3.10;;;18.40;95.40;;;;;;4965281;28;20527;-72
2023/10/04 02:13:27;;;;;;;6.73;2.70;;;18.40;95.40;;;;;;4948536;28;20446;-72
2023/10/04 02:15:54;;;;;;;5.33;3.17;;;18.40;95.40;;;;;;4965693;28;20844;-72
2023/10/04 02:18:25;;;;;;;5.50;3.03;;;18.40;95.40;;;;;;4948902;28;20569;-72
2023/10/04 02:20:53;;;;;;;8.63;3.20;;;18.40;95.40;;;;;;4948596;28;20434;-72
2023/10/04 02:23:23;;;;;;;4.33;2.87;;;18.40;95.40;;;;;;4948947;28;20428;-72
2023/10/04 02:25:54;;;;;;;4.10;3.17;;;18.30;95.30;;;;;;4947937;28;20438;-72
2023/10/04 02:28:24;;;;;;;6.23;3.70;;;18.40;95.40;;;;;;4948007;28;20478;-69
2023/10/04 02:30:54;;;;;;;3.07;2.77;;;18.30;95.40;;;;;;4932426;28;20433;-70
2023/10/04 02:33:27;;;;;;;3.53;2.80;;;18.30;95.30;;;;;;4932364;28;20432;-71
2023/10/04 02:35:53;;;;;;;6.30;3.27;;;18.30;95.40;;;;;;4948375;28;20987;-72
2023/10/04 02:38:23;;;;;;;4.37;3.40;;;18.30;95.20;;;;;;4955005;28;20458;-72
2023/10/04 02:40:51;;;;;;;8.43;3.50;;;18.30;95.30;;;;;;4948763;28;20239;-72
2023/10/04 02:43:27;;;;;;;3.63;2.77;;;18.30;95.20;;;;;;4965096;28;20430;-72
2023/10/04 02:45:59;;;;;;;7.13;3.37;;;18.30;95.20;;;;;;4930852;28;21011;-72
2023/10/04 02:48:25;;;;;;;6.93;3.00;;;18.30;95.30;;;;;;4962818;28;20464;-72
2023/10/04 02:50:54;;;;;;;4.47;3.03;;;18.30;95.30;;;;;;4946728;28;20428;-72
2023/10/04 02:53:27;;;;;;;6.50;3.10;;;18.30;95.30;;;;;;4947355;28;20433;-72
2023/10/04 02:55:57;;;;;;;5.70;3.00;;;18.30;95.30;;;;;;4946422;28;20821;-72
2023/10/04 02:58:29;;;;;;;3.03;2.60;;;18.30;95.20;;;;;;4955038;28;20467;-72
2023/10/04 03:00:58;;;;;;;4.00;3.33;;;18.30;95.20;;;;;;4939322;28;20576;-72
2023/10/04 03:03:24;;;;;;;5.47;3.73;;;18.20;95.20;;;;;;4930839;28;20433;-72
2023/10/04 03:06:01;;;;;;;3.47;2.97;;;18.20;95.30;;;;;;4931554;28;20454;-72
2023/10/04 03:08:28;;;;;;;4.47;3.50;;;18.20;95.30;;;;;;4931354;28;20453;-72
2023/10/04 03:10:57;;;;;;;3.60;2.80;;;18.30;95.40;;;;;;4946774;28;20820;-72
2023/10/04 03:13:27;;;;;;;3.53;2.70;;;18.20;95.40;;;;;;4946802;28;20438;-72
2023/10/04 03:15:58;;;;;;;7.03;3.47;;;18.20;95.40;;;;;;4930703;28;20549;-72
2023/10/04 03:18:26;;;;;;;10.27;3.60;;;18.20;95.40;;;;;;4946740;28;21036;-72
2023/10/04 03:23:35;;;;;;;6.20;3.57;;;18.20;95.40;;;;;;4946893;28;20890;-72
2023/10/04 03:26:06;;;;;;;5.97;3.40;;;18.20;95.50;;;;;;4929776;28;20905;-72
2023/10/04 03:28:38;;;;;;;3.80;2.90;;;18.20;95.50;;;;;;4946950;28;20841;-72
2023/10/04 03:31:18;;;;;;;4.53;2.90;;;18.20;95.50;;;;;;4946662;28;20448;-72
2023/10/04 03:33:53;;;;;;;5.07;3.10;;;18.20;95.50;;;;;;4931493;28;21030;-72
2023/10/04 03:36:25;;;;;;;3.20;2.83;;;18.20;95.50;;;;;;4930537;28;20552;-72
2023/10/04 03:38:54;;;;;;;3.83;3.33;;;18.20;95.40;;;;;;4946694;28;20843;-72
2023/10/04 03:41:25;;;;;;;9.47;3.23;;;18.10;95.40;;;;;;4954535;28;20426;-72
2023/10/04 03:44:00;;;;;;;3.70;3.33;;;18.10;95.50;;;;;;4930841;28;20469;-72
2023/10/04 03:46:27;;;;;;;3.20;2.90;;;18.30;95.50;;;;;;4930443;28;20442;-72
2023/10/04 03:49:01;;;;;;;7.67;3.30;;;18.10;95.40;;;;;;4962386;28;20481;-72
2023/10/04 03:51:33;;;;;;;3.10;2.60;;;18.10;95.50;;;;;;4946818;28;20557;-72
2023/10/04 03:54:07;;;;;;;3.97;3.30;;;18.10;95.50;;;;;;4946636;28;20468;-72
2023/10/04 03:56:34;;;;;;;4.23;3.33;;;18.10;95.50;;;;;;4946342;28;20432;-72
2023/10/04 03:59:03;;;;;;;5.13;2.83;;;18.10;95.70;;;;;;4930411;28;21030;-72
2023/10/04 04:01:31;;;;;;;3.27;2.97;;;18.10;95.70;;;;;;4960805;28;20523;-72
2023/10/04 04:04:03;;;;;;;6.20;3.60;;;18.10;95.70;;;;;;4945669;28;20456;-72
2023/10/04 04:06:31;;;;;;;3.37;2.97;;;18.10;95.60;;;;;;4945693;28;20777;-72
2023/10/04 04:09:01;;;;;;;5.67;3.30;;;18.10;95.60;;;;;;4945880;28;20437;-72
2023/10/04 04:11:28;;;;;;;3.07;2.70;;;18.10;95.60;;;;;;4963571;28;20441;-72
2023/10/04 04:14:00;;;;;;;4.00;2.63;;;18.10;95.70;;;;;;4930178;28;20449;-72
2023/10/04 04:16:26;;;;;;;3.73;3.03;;;18.10;95.60;;;;;;4940406;29;20456;-72
2023/10/04 04:18:54;;;;;;;6.73;3.70;;;18.10;95.60;;;;;;4947572;28;20476;-72
2023/10/04 04:21:21;;;;;;;7.37;3.10;;;18.00;95.60;;;;;;4925797;28;20439;-72
2023/10/04 04:23:48;;;;;;;4.23;3.10;;;18.00;95.50;;;;;;4925377;29;20569;-72
2023/10/04 04:26:16;;;;;;;6.40;3.40;;;18.10;95.70;;;;;;4918677;29;20466;-72
2023/10/04 04:28:44;;;;;;;3.77;2.87;;;18.00;95.60;;;;;;4925907;29;20437;-72
2023/10/04 04:31:20;;;;;;;4.07;3.43;;;18.00;95.60;;;;;;4942047;29;20495;-72
2023/10/04 04:33:46;;;;;;;4.23;3.27;;;18.00;95.70;;;;;;4926341;29;20436;-72
2023/10/04 04:36:26;;;;;;;4.23;2.97;;;18.00;95.70;;;;;;4919240;29;20446;-72
2023/10/04 04:38:55;;;;;;;5.90;3.30;;;18.00;95.60;;;;;;4941351;29;21125;-72
2023/10/04 04:41:29;;;;;;;5.67;3.33;;;18.00;95.70;;;;;;4926444;29;20434;-72
2023/10/04 04:44:06;;;;;;;5.70;3.63;;;18.00;95.70;;;;;;4923795;29;21075;-72
2023/10/04 04:46:35;;;;;;;5.20;3.30;;;18.00;95.70;;;;;;4942504;29;20446;-72
2023/10/04 04:49:02;;;;;;;4.30;3.23;;;18.00;95.60;;;;;;4916741;29;20473;-72
2023/10/04 04:51:31;;;;;;;4.47;3.10;;;18.00;95.70;;;;;;4941722;29;20430;-72
2023/10/04 04:53:59;;;;;;;4.13;3.17;;;17.90;95.60;;;;;;4942563;29;20532;-71
2023/10/04 04:56:28;;;;;;;4.37;3.00;;;17.90;95.60;;;;;;4938364;29;20945;-72
2023/10/04 04:59:07;;;;;;;4.03;3.00;;;17.90;95.60;;;;;;4939768;29;20962;-72
2023/10/04 05:01:39;;;;;;;5.43;2.80;;;18.00;95.60;;;;;;4942462;29;20441;-72
2023/10/04 05:04:11;;;;;;;3.73;3.43;;;17.90;95.70;;;;;;4941057;29;21159;-72
2023/10/04 05:06:39;;;;;;;3.47;3.17;;;17.90;95.60;;;;;;4941165;29;20467;-72
2023/10/04 05:09:05;;;;;;;6.30;3.20;;;17.90;95.60;;;;;;4925521;29;20445;-72
2023/10/04 05:11:36;;;;;;;5.53;3.43;;;17.90;95.70;;;;;;4941206;29;20756;-72
2023/10/04 05:14:09;;;;;;;4.60;3.10;;;17.90;95.60;;;;;;4941291;29;20484;-71
2023/10/04 05:16:35;;;;;;;5.03;3.30;;;17.90;95.70;;;;;;4938653;28;20838;-72
2023/10/04 05:19:04;;;;;;;4.10;3.13;;;17.90;95.70;;;;;;4927926;28;21117;-72
2023/10/04 05:21:34;;;;;;;2.60;2.40;;;17.90;95.60;;;;;;4944524;28;20452;-72
2023/10/04 05:24:03;;;;;;;3.57;2.80;;;17.90;95.60;;;;;;4944629;28;20460;-72
2023/10/04 05:26:30;;;;;;;4.20;3.17;;;17.90;95.50;;;;;;4959477;28;20453;-72
2023/10/04 05:28:56;;;;;;;3.10;2.63;;;17.90;95.50;;;;;;4942469;28;20465;-72
2023/10/04 05:31:24;;;;;;;3.57;3.27;;;17.90;95.50;;;;;;4942678;28;20464;-72
2023/10/04 05:33:51;;;;;;;5.23;3.00;;;17.80;95.40;;;;;;4928106;28;20452;-72
2023/10/04 05:36:24;;;;;;;3.43;2.57;;;17.90;95.50;;;;;;4965058;28;20444;-71
2023/10/04 05:39:03;;;;;;;4.77;3.07;;;17.90;95.50;;;;;;4947665;28;20466;-71
2023/10/04 05:41:31;;;;;;;5.87;3.00;;;17.90;95.50;;;;;;4946286;28;20455;-72
2023/10/04 05:43:58;;;;;;;3.80;3.20;;;17.80;95.50;;;;;;4963491;28;20947;-72
2023/10/04 05:46:27;;;;;;;4.33;2.70;;;17.80;95.60;;;;;;4962593;28;20460;-72
2023/10/04 05:48:53;;;;;;;3.87;3.10;;;17.80;95.50;;;;;;4947041;28;21244;-72
2023/10/04 05:51:24;;;;;;;3.97;2.90;;;17.80;95.40;;;;;;4947148;28;20456;-72
2023/10/04 05:54:03;;;;;;;4.07;2.93;;;17.80;95.40;;;;;;4964498;28;20466;-72
2023/10/04 05:56:30;;;;;;;3.50;2.87;;;17.80;95.50;;;;;;4964980;28;20986;-72
2023/10/04 05:59:00;;;;;;;4.80;2.70;;;17.80;95.30;;;;;;4946880;28;21086;-72
2023/10/04 06:01:28;;;;;;;4.70;3.17;;;17.80;95.30;;;;;;4947924;28;20519;-72
2023/10/04 06:03:55;;;;;;;4.63;3.20;;;17.80;95.20;;;;;;4929879;28;20465;-72
2023/10/04 06:06:22;;;;;;;4.50;3.10;;;17.80;95.10;;;;;;4963548;28;20543;-72
2023/10/04 06:08:54;;;;;;;3.90;2.50;;;17.80;95.20;;;;;;4961215;28;20448;-72
2023/10/04 06:11:22;;;;;;;4.03;3.20;;;17.80;95.20;;;;;;4963259;28;20451;-71
2023/10/04 06:13:52;;;;;;;4.00;3.60;;;17.80;95.30;;;;;;4946013;28;20437;-72
2023/10/04 06:16:20;;;;;;;3.57;3.13;;;17.80;95.40;;;;;;4929006;28;20474;-72
2023/10/04 06:18:49;;;;;;;2.97;2.67;;;17.70;95.20;;;;;;4945550;28;20697;-72
2023/10/04 06:21:23;;;;;;;5.77;2.20;;;17.70;95.10;;;;;;4962451;28;21328;-71
2023/10/04 06:23:51;;;;;;;6.23;2.60;;;17.70;95.20;;;;;;4939346;28;20454;-72
2023/10/04 06:26:17;;;;;;;3.77;3.07;;;17.70;95.20;;;;;;4945025;28;20432;-71
2023/10/04 06:28:46;;;;;;;6.30;3.37;;;17.90;95.30;;;;;;4962600;28;20544;-71
2023/10/04 06:34:27;;;;;;;5.27;3.00;;;17.70;95.00;;;;;;4872972;29;20483;-81
2023/10/04 06:36:53;;;;;;;3.97;2.87;;;17.70;95.20;;;;;;4856145;29;20950;-81
2023/10/04 06:39:23;;;;;;;5.30;3.00;;;17.70;95.20;;;;;;4854559;29;20497;-81
2023/10/04 06:41:52;;;;;;;4.87;2.93;;;17.70;95.10;;;;;;4874309;29;20288;-81
2023/10/04 06:44:23;;;;;;;5.30;3.03;;;17.70;95.30;;;;;;4845587;29;20484;-81
2023/10/04 06:46:52;;;;;;;4.80;3.30;;;17.70;95.40;;;;;;4859636;29;20831;-81
2023/10/04 06:49:18;;;;;;;3.67;2.60;;;17.70;95.30;;;;;;4873402;29;20472;-81
2023/10/04 06:51:44;;;;;;;5.07;2.50;;;17.70;95.40;;;;;;4873595;29;20478;-82
2023/10/04 06:54:12;;;;;;;6.17;3.27;;;17.70;95.30;;;;;;4875597;29;20982;-82
2023/10/04 06:56:37;;;;;;;6.07;4.57;;;17.70;95.60;;;;;;4859911;29;20528;-80
2023/10/04 06:59:03;;;;;;;4.13;3.00;;;17.70;95.10;;;;;;4876663;29;20225;-82
2023/10/04 07:01:32;;;;;;;3.73;2.40;;;17.70;95.20;;;;;;4860032;29;20765;-82
2023/10/04 07:03:58;;;;;;;3.93;2.77;;;17.60;95.20;;;;;;4865673;29;20426;-83
2023/10/04 07:06:32;;;;;;;5.10;2.67;;;17.60;95.20;;;;;;4875439;29;20907;-81
2023/10/04 07:09:00;;;;;;;5.77;2.97;;;17.60;95.20;;;;;;4869025;29;20442;-82
2023/10/04 07:11:31;;;;;;;7.43;3.13;;;17.50;95.20;;;;;;4867378;29;20456;-81
2023/10/04 07:13:56;;;;;;;4.27;2.90;;;17.60;95.20;;;;;;4842383;29;20458;-81
2023/10/04 07:16:25;;;;;;;5.63;3.17;;;17.60;95.20;;;;;;4863720;29;20445;-81
2023/10/04 07:18:53;;;;;;;4.20;3.10;;;17.60;95.30;;;;;;4856467;29;20488;-82
2023/10/04 07:21:23;;;;;;;3.20;2.83;;;17.60;95.20;;;;;;4874559;29;20860;-81
2023/10/04 07:23:52;;;;;;;5.10;3.47;;;17.60;95.30;;;;;;4859870;29;20467;-81
2023/10/04 07:26:18;;;;;;;6.13;2.90;;;17.60;95.30;;;;;;4856438;29;20434;-81
2023/10/04 07:28:46;;;;;;;4.90;3.30;;;17.60;95.20;;;;;;4872527;29;20186;-81
2023/10/04 07:31:12;;;;;;;6.03;3.50;;;17.60;95.30;;;;;;4876127;29;20458;-82
2023/10/04 07:33:40;;;;;;;4.80;2.93;;;17.60;95.20;;;;;;4855839;29;20489;-81
2023/10/04 07:36:11;;;;;;;5.63;3.00;;;17.60;95.20;;;;;;4876290;29;20209;-81
2023/10/04 07:38:45;;;;;;;4.50;3.50;;;17.60;95.20;;;;;;4844956;29;20477;-82
2023/10/04 07:41:14;;;;;;;7.37;3.57;;;17.60;95.20;;;;;;4844010;29;20461;-82
2023/10/04 07:43:40;;;;;;;7.40;3.27;;;17.60;95.30;;;;;;4866962;29;20445;-81
2023/10/04 07:46:08;;;;;;;4.23;3.00;;;17.60;95.30;;;;;;4875696;29;20437;-81
2023/10/04 07:48:35;;;;;;;6.23;3.27;;;17.60;95.40;;;;;;4859077;29;20303;-82
2023/10/04 07:51:01;;;;;;;5.40;3.13;;;17.60;95.30;;;;;;4875727;29;20553;-81
2023/10/04 07:53:27;;;;;;;7.70;3.53;;;17.50;95.40;;;;;;4871185;29;20449;-81
2023/10/04 07:55:53;;;;;;;5.17;3.07;;;17.50;95.30;;;;;;4884734;29;20448;-81
2023/10/04 07:58:19;;;;;;;6.53;3.13;;;17.50;95.30;;;;;;4874456;29;20207;-83
2023/10/04 08:00:47;;;;;;;3.13;2.70;;;17.50;95.30;;;;;;4875809;29;20442;-81
2023/10/04 08:03:14;;;;;;;9.67;2.97;;;17.50;95.30;;;;;;4879053;29;20508;-81
2023/10/04 08:05:40;;;;;;;7.60;3.83;;;17.50;95.30;;;;;;4854872;29;20197;-81
2023/10/04 08:08:08;;;;;;;3.90;2.73;;;17.50;95.40;;;;;;4845222;29;21142;-81
2023/10/04 08:10:36;;;;;;;5.67;3.13;;;17.60;95.40;;;;;;4869705;29;20506;-81
2023/10/04 08:13:05;;;;;;;7.30;3.60;;;17.50;95.40;;;;;;4860792;29;20967;-81
2023/10/04 08:15:32;;;;;;;7.40;3.77;;;17.60;95.40;;;;;;4867012;29;20576;-82
2023/10/04 08:17:59;;;;;;;7.00;3.17;;;17.60;95.40;;;;;;4856900;29;20549;-82
2023/10/04 08:20:32;;;;;;;6.40;3.00;;;17.50;95.40;;;;;;4866606;29;20470;-82
2023/10/04 08:22:59;;;;;;;6.70;3.60;;;17.60;95.40;;;;;;4882010;29;20957;-81
2023/10/04 08:25:29;;;;;;;5.00;3.13;;;17.60;95.50;;;;;;4882996;29;20447;-82
2023/10/04 08:27:58;;;;;;;6.93;3.30;;;17.60;95.50;;;;;;4881155;29;20932;-82
2023/10/04 08:30:25;;;;;;;6.67;3.57;;;17.60;95.50;;;;;;4878817;29;20489;-83
2023/10/04 08:32:54;;;;;;;3.50;2.83;;;17.60;95.50;;;;;;4881656;29;20525;-82
2023/10/04 08:35:27;;;;;;;5.50;3.17;;;17.60;95.50;;;;;;4884922;29;20440;-82
2023/10/04 08:37:57;;;;;;;4.20;2.93;;;17.60;95.50;;;;;;4866566;29;20435;-82
2023/10/04 08:40:27;;;;;;;5.23;2.93;;;17.60;95.40;;;;;;4862523;29;20486;-82
2023/10/04 08:42:53;;;;;;;5.27;3.33;;;17.60;95.50;;;;;;4860367;29;20434;-83
2023/10/04 08:45:22;;;;;;;7.03;3.03;;;17.50;95.50;;;;;;4877540;29;20461;-81
2023/10/04 08:47:57;;;;;;;9.90;3.63;;;17.50;95.60;;;;;;4863898;29;20437;-82
2023/10/04 08:50:33;;;;;;;5.00;3.10;;;17.60;95.70;;;;;;4876995;29;20533;-82
2023/10/04 08:53:21;;;;;;;7.13;3.23;;;17.60;95.70;;;;;;4875177;29;20495;-82
2023/10/04 08:55:56;;;;;;;7.73;3.20;;;17.50;95.70;;;;;;4870117;29;21224;-81
2023/10/04 08:58:22;;;;;;;8.03;3.47;;;17.50;95.80;;;;;;4848179;29;20461;-82
2023/10/04 09:00:52;;;;;;;5.77;3.80;;;17.50;96.00;;;;;;4842400;29;20565;-81
2023/10/04 09:03:23;;;;;;;9.50;3.53;;;17.50;95.90;;;;;;4840850;29;20458;-82
2023/10/04 09:05:54;;;;;;;5.27;3.23;;;17.50;96.00;;;;;;4873085;29;20458;-81
2023/10/04 09:08:28;;;;;;;4.20;3.00;;;17.50;96.00;;;;;;4861417;29;20458;-82
2023/10/04 09:10:57;;;;;;;4.93;3.27;;;17.50;96.10;;;;;;4860736;29;20469;-82
2023/10/04 09:13:26;;;;;;;5.73;3.70;;;17.50;96.10;;;;;;4865161;29;20459;-82
2023/10/04 09:15:52;;;;;;;6.03;3.50;;;17.60;96.10;;;;;;4884578;29;20777;-81
2023/10/04 09:18:28;;;;;;;5.17;3.43;;;17.60;96.30;;;;;;4842532;29;20591;-82
2023/10/04 09:20:54;;;;;;;5.70;3.00;;;17.60;96.20;;;;;;4857607;29;20506;-82
2023/10/04 09:23:27;;;;;;;6.30;2.93;;;17.60;96.40;;;;;;4865116;29;20540;-83
2023/10/04 09:25:55;;;;;;;5.93;3.60;;;17.60;96.20;;;;;;4864858;29;20965;-82
2023/10/04 09:28:38;;;;;;;5.40;2.93;;;17.60;96.40;;;;;;4872665;29;20501;-83
2023/10/04 09:31:12;;;;;;;8.57;3.60;;;17.70;96.40;;;;;;4857787;29;20445;-83
2023/10/04 09:33:39;;;;;;;8.70;3.70;;;17.60;96.40;;;;;;4874951;29;20479;-83
2023/10/04 09:36:06;;;;;;;5.03;3.20;;;17.60;96.40;;;;;;4877198;29;20925;-83
2023/10/04 09:38:35;;;;;;;7.67;3.77;;;17.60;96.50;;;;;;4891594;29;21282;-82
2023/10/04 09:41:04;;;;;;;7.90;3.50;;;17.70;97.50;;;;;;4875725;29;20444;-83
2023/10/04 09:43:41;;;;;;;6.33;3.20;;;17.70;97.20;;;;;;4888687;29;20929;-83
2023/10/04 09:46:13;;;;;;;9.67;4.00;;;17.70;96.60;;;;;;4890455;29;20445;-82
2023/10/04 09:48:45;;;;;;;6.90;3.77;;;17.70;96.90;;;;;;4854027;29;20469;-82
2023/10/04 09:51:12;;;;;;;8.87;3.30;;;17.90;96.60;;;;;;4882457;29;20457;-81
2023/10/04 09:53:42;;;;;;;5.30;3.37;;;17.70;96.70;;;;;;4862361;29;20511;-82
2023/10/04 09:56:16;;;;;;;6.77;3.30;;;17.70;96.50;;;;;;4887632;29;20437;-82
2023/10/04 09:58:53;;;;;;;6.50;3.90;;;17.70;96.50;;;;;;4887781;29;20442;-83
2023/10/04 10:01:19;;;;;;;7.20;3.47;;;17.80;96.70;;;;;;4875137;29;20437;-82
2023/10/04 10:03:59;;;;;;;6.73;3.50;;;17.80;96.70;;;;;;4883952;29;20461;-82
2023/10/04 10:06:27;;;;;;;7.13;3.73;;;17.80;96.60;;;;;;4876168;29;20462;-82
2023/10/04 10:09:00;;;;;;;9.43;3.00;;;17.80;96.60;;;;;;4891431;29;20463;-81
2023/10/04 10:11:27;;;;;;;4.87;3.20;;;17.80;96.60;;;;;;4888202;29;20493;-85
2023/10/04 10:13:54;;;;;;;5.03;3.60;;;17.80;96.50;;;;;;4888422;29;20436;-82
2023/10/04 10:16:21;;;;;;;5.07;3.73;;;17.80;96.60;;;;;;4888609;29;20431;-82
2023/10/04 10:18:48;;;;;;;8.20;3.60;;;17.90;96.60;;;;;;4870848;29;21359;-82
2023/10/04 10:21:16;;;;;;;5.37;3.47;;;17.90;96.60;;;;;;4879647;29;20441;-81
2023/10/04 10:24:03;;;;;;;4.53;3.00;;;17.90;96.60;;;;;;4895443;29;20471;-81
2023/10/04 10:26:30;;;;;;;6.83;3.50;;;17.90;96.60;;;;;;4895442;29;20561;-81
2023/10/04 10:29:03;;;;;;;5.73;4.00;;;17.90;96.60;;;;;;4855990;29;20555;-81
2023/10/04 10:31:29;;;;;;;6.43;2.97;;;17.90;96.60;;;;;;4879816;29;20464;-81
2023/10/04 10:33:58;;;;;;;8.17;3.60;;;18.00;96.60;;;;;;4896285;29;20475;-81
2023/10/04 10:36:28;;;;;;;6.30;4.17;;;18.00;96.70;;;;;;4864218;29;20472;-80
2023/10/04 10:38:56;;;;;;;5.53;3.60;;;18.00;96.50;;;;;;4898980;29;20481;-81
2023/10/04 10:41:51;;;;;;;6.00;3.70;;;18.00;96.50;;;;;;4876974;29;20463;-81
2023/10/04 10:44:20;;;;;;;6.43;3.20;;;18.00;96.40;;;;;;4878043;29;20472;-81
2023/10/04 10:46:55;;;;;;;5.80;3.40;;;18.10;96.40;;;;;;4896370;29;20437;-81
2023/10/04 10:49:58;;;;;;;4.80;3.43;;;18.10;96.60;;;;;;4874169;29;20472;-80
2023/10/04 10:52:34;;;;;;;7.37;3.57;;;18.10;96.30;;;;;;4888350;29;20448;-81
2023/10/04 10:55:05;;;;;;;7.83;3.73;;;18.10;96.30;;;;;;4892791;29;20439;-81
2023/10/04 10:57:36;;;;;;;5.13;3.63;;;18.20;96.30;;;;;;4894889;29;20441;-81
2023/10/04 11:02:46;;;;;;;7.27;3.57;;;18.20;96.30;;;;;;4895136;29;20774;-80
2023/10/04 11:05:19;;;;;;;7.67;4.07;;;18.20;96.30;;;;;;4894932;29;20922;-81
2023/10/04 11:07:46;;;;;;;9.13;3.67;;;18.20;96.20;;;;;;4895397;29;20577;-81
2023/10/04 11:10:34;;;;;;;8.67;3.90;;;18.20;96.10;;;;;;4894776;29;20557;-81
2023/10/04 11:13:08;;;;;;;9.40;4.20;;;18.20;96.00;;;;;;4876178;29;20480;-80
2023/10/04 11:15:36;;;;;;;5.23;3.20;;;18.30;96.10;;;;;;4878331;29;20471;-82
2023/10/04 11:18:03;;;;;;;11.47;3.80;;;18.30;96.10;;;;;;4893641;29;20432;-82
2023/10/04 11:20:32;;;;;;;5.57;3.67;;;18.30;96.10;;;;;;4884019;29;20493;-82
2023/10/04 11:22:58;;;;;;;7.53;3.90;;;18.30;96.00;;;;;;4875748;29;21050;-81
2023/10/04 11:25:26;;;;;;;5.90;3.40;;;18.40;96.00;;;;;;4896642;23;20511;-68
2023/10/04 11:27:56;;;;;;;6.80;4.10;;;18.30;95.90;;;;;;4889015;29;20447;-68
2023/10/04 11:30:33;;;;;;;4.83;3.10;;;18.40;95.90;;;;;;4919142;29;20435;-69
2023/10/04 11:33:00;;;;;;;5.53;4.50;;;18.40;95.60;;;;;;4902610;29;20462;-69
2023/10/04 11:35:33;;;;;;;5.40;4.00;;;18.40;95.50;;;;;;4918797;29;20455;-69
2023/10/04 11:38:05;;;;;;;7.60;3.93;;;18.40;95.40;;;;;;4903576;29;20437;-68
2023/10/04 11:40:33;;;;;;;6.00;3.50;;;18.40;95.40;;;;;;4920576;29;20522;-67
2023/10/04 11:43:01;;;;;;;8.27;3.87;;;18.40;95.30;;;;;;4919754;29;20458;-68
2023/10/04 11:45:27;;;;;;;6.50;4.40;;;18.40;95.10;;;;;;4916859;29;20499;-69
2023/10/04 11:48:08;;;;;;;9.27;5.10;;;18.50;95.10;;;;;;4920007;29;21030;-68
2023/10/04 11:50:47;;;;;;;8.50;3.83;;;18.50;94.90;;;;;;4919399;29;20932;-68
2023/10/04 11:53:27;;;;;;;5.07;3.93;;;18.50;94.90;;;;;;4902735;29;20513;-68
2023/10/04 11:56:00;;;;;;;6.00;3.53;;;18.50;95.00;;;;;;4918825;29;20546;-68
2023/10/04 11:58:31;;;;;;;8.17;3.73;;;18.50;95.00;;;;;;4887398;29;20428;-68
2023/10/04 12:01:07;;;;;;;7.10;4.00;;;18.60;95.10;;;;;;4902418;29;20452;-68
2023/10/04 12:03:34;;;;;;;7.53;3.97;;;18.50;95.00;;;;;;4920849;29;20422;-68
2023/10/04 12:06:00;;;;;;;5.80;3.70;;;18.60;95.00;;;;;;4920443;29;21101;-68
2023/10/04 12:08:30;;;;;;;6.57;4.00;;;18.60;95.30;;;;;;4920914;29;20439;-69
2023/10/04 12:10:56;;;;;;;5.73;4.20;;;18.60;95.00;;;;;;4920784;29;20427;-67
2023/10/04 12:13:24;;;;;;;7.80;4.40;;;18.60;95.00;;;;;;4920761;29;20488;-68
2023/10/04 12:15:53;;;;;;;6.00;4.17;;;18.60;94.80;;;;;;4919682;29;20462;-69
2023/10/04 12:18:21;;;;;;;7.67;4.60;;;18.60;94.70;;;;;;4921166;29;20498;-71
2023/10/04 12:20:48;;;;;;;8.13;3.77;;;18.70;94.70;;;;;;4904948;29;20471;-70
2023/10/04 12:23:18;;;;;;;5.93;3.90;;;18.60;94.40;;;;;;4920810;29;20514;-71
2023/10/04 12:25:48;;;;;;;7.17;4.37;;;18.70;94.40;;;;;;4933253;29;21015;-70
2023/10/04 12:28:16;;;;;;;5.07;4.17;;;18.70;94.30;;;;;;4923646;29;20431;-70
2023/10/04 12:30:48;;;;;;;8.10;4.20;;;18.70;94.30;;;;;;4907444;29;21269;-70
2023/10/04 12:33:14;;;;;;;5.93;3.80;;;18.70;94.20;;;;;;4923551;29;21024;-71
2023/10/04 12:35:42;;;;;;;7.17;4.00;;;18.70;94.20;;;;;;4892175;29;20802;-69
2023/10/04 12:38:08;;;;;;;7.80;4.03;;;18.70;94.20;;;;;;4907284;29;20545;-69
2023/10/04 12:40:36;;;;;;;5.50;3.97;;;18.70;94.10;;;;;;4931131;29;20538;-70
2023/10/04 12:43:05;;;;;;;6.43;3.57;;;18.80;94.30;;;;;;4915983;29;20493;-70
2023/10/04 12:45:36;;;;;;;7.63;4.20;;;18.70;94.20;;;;;;4921232;29;20446;-69
2023/10/04 12:48:04;;;;;;;7.43;3.97;;;18.80;94.20;;;;;;4940462;29;20510;-70
2023/10/04 12:50:32;;;;;;;7.53;4.00;;;18.80;94.30;;;;;;4939630;29;20582;-69
2023/10/04 12:52:58;;;;;;;5.27;3.70;;;18.80;94.30;;;;;;4924813;29;20445;-69
2023/10/04 12:55:25;;;;;;;7.30;4.63;;;18.80;94.10;;;;;;4888439;29;21030;-70
2023/10/04 12:57:51;;;;;;;5.77;4.13;;;18.80;94.00;;;;;;4923918;29;20487;-71
2023/10/04 13:00:24;;;;;;;7.97;4.93;;;18.80;94.00;;;;;;4890948;29;20482;-70
2023/10/04 13:02:56;;;;;;;10.40;5.37;;;18.80;94.00;;;;;;4922447;29;20710;-70
2023/10/04 13:05:22;;;;;;;10.90;4.73;;;18.90;93.90;;;;;;4922252;29;20450;-70
2023/10/04 13:07:50;;;;;;;7.50;5.30;;;18.90;93.80;;;;;;4936049;29;20426;-71